map of LJCE home
LJCE - Airport
Location
City:  Krsko Cerklje, Slovenia
Name:Cerklje
ICAO:LJCE

Details
Type:Airport (Aerodrome, Airfield)
Use:Military
Latitude:4554'00"N (45.899971)
Longitude:1531'49"E (15.530194)
Datum:WGS 1984
Elevation:510 ft (155 m)
Variation:4.11E (WMM2015v2 magnetic declination)
0.14 annual change
Runways:1
Longest:7980 × 150 ft (2432 × 45.5 m), paved

Time
Time Zone:UTC+1 (DST+2)
Local Time:

Weather
METAR:LJCE 041400Z 10008KT 9999 FEW030 BKN065 06/M01 Q1028 RMK BLU

Related Locations
Nearby:
Farthest:CHT: 11834 mi / 19045 km
Waitangi [Tuuta], CIT, NZ

Find:

   beyond  
but within

Other Information
Maps:
NOTAMs:
Links:
Sources:

  
  • flag of Slovenia
  

Sectional Chart

Flight Planning
at skyvector.com

Satellite Image

Google Maps Satellite view

 

Copyright © 2004-2019 Karl L. Swartz. All rights reserved.
The Great Circle Mapper name and logo are trademarks of the Great Circle Mapper.
All other trademarks mentioned herein belong to their respective owners.
Please see credits for attibutions and further copyright information.

  Follow gcmap on Facebook Follow gcmap on Twitter GCmap on LinkedIn

hCard Microformat

Geo Microformat